createdAt,value
2023-11-15T00:01:44.260Z,99523.28
2023-11-15T00:04:46.009Z,99529.84
2023-11-15T00:07:47.821Z,99538.69
2023-11-15T00:10:49.737Z,99538.97
2023-11-15T00:13:52.393Z,99540.59
2023-11-15T00:16:54.303Z,99530.69
2023-11-15T00:19:56.580Z,99536.16
2023-11-15T00:22:58.415Z,99538.66
2023-11-15T00:26:00.462Z,99565.94
2023-11-15T00:29:03.259Z,99586.78
2023-11-15T00:32:06.061Z,99588.84
2023-11-15T00:35:09.792Z,99575.06
2023-11-15T00:38:12.548Z,99523.31
2023-11-15T00:41:14.381Z,99533.53
2023-11-15T00:44:17.601Z,99541.41
2023-11-15T00:47:19.993Z,99554.47
2023-11-15T00:50:22.854Z,99573.75
2023-11-15T00:53:25.962Z,99567.50
2023-11-15T00:56:28.264Z,99541.56
2023-11-15T00:59:38.543Z,99541.28
2023-11-15T01:02:47.644Z,99541.28
2023-11-15T01:05:49.588Z,99535.22
2023-11-15T01:08:52.560Z,99533.75
2023-11-15T01:11:54.410Z,99528.22
2023-11-15T01:14:56.378Z,99522.63
2023-11-15T01:17:58.551Z,99523.25
2023-11-15T01:21:01.524Z,99531.69
2023-11-15T01:24:04.261Z,99529.72
2023-11-15T01:27:07.228Z,99525.94
2023-11-15T01:30:10.111Z,99541.41
2023-11-15T01:33:12.101Z,99550.53
2023-11-15T01:36:14.544Z,99556.28
2023-11-15T01:39:19.127Z,99555.66
2023-11-15T01:42:21.002Z,99563.59
2023-11-15T01:45:22.815Z,99560.91
2023-11-15T01:48:24.882Z,99563.06
2023-11-15T01:51:26.984Z,99543.31
2023-11-15T01:54:30.540Z,99533.56
2023-11-15T01:57:32.416Z,99523.72
2023-11-15T02:00:35.317Z,99533.81
2023-11-15T02:03:38.214Z,99533.09
2023-11-15T02:06:40.115Z,99536.88
2023-11-15T02:09:42.387Z,99523.63
2023-11-15T02:12:44.222Z,99508.03
2023-11-15T02:15:47.363Z,99519.16
2023-11-15T02:18:49.891Z,99517.34
2023-11-15T02:21:52.334Z,99517.34
2023-11-15T02:24:54.200Z,99507.38
2023-11-15T02:27:55.994Z,99504.31
2023-11-15T02:30:57.795Z,99495.16
2023-11-15T02:33:59.675Z,99480.34
2023-11-15T02:37:01.898Z,99505.16
2023-11-15T02:40:06.058Z,99500.00
2023-11-15T02:43:07.889Z,99482.81
2023-11-15T02:46:09.700Z,99484.13
2023-11-15T02:49:11.620Z,99472.53
2023-11-15T02:52:13.459Z,99480.28
2023-11-15T02:55:15.427Z,99484.03
2023-11-15T02:58:17.282Z,99470.28
2023-11-15T03:01:19.233Z,99465.47
2023-11-15T03:04:21.064Z,99458.47
2023-11-15T03:07:22.840Z,99474.44
2023-11-15T03:10:25.460Z,99466.78
2023-11-15T03:13:27.318Z,99483.94
2023-11-15T03:16:29.195Z,99477.50
2023-11-15T03:19:31.092Z,99472.19
2023-11-15T03:22:33.841Z,99465.81
2023-11-15T03:25:35.603Z,99486.84
2023-11-15T03:28:37.338Z,99489.72
2023-11-15T03:31:39.336Z,99488.03
2023-11-15T03:34:45.049Z,99501.13
2023-11-15T03:37:46.969Z,99486.97
2023-11-15T03:40:49.130Z,99500.19
2023-11-15T03:43:52.885Z,99488.09
2023-11-15T03:46:54.637Z,99490.38
2023-11-15T03:49:56.905Z,99500.31
2023-11-15T03:52:58.685Z,99493.88
2023-11-15T03:56:00.529Z,99498.47
2023-11-15T03:59:02.345Z,99487.50
2023-11-15T04:02:04.194Z,99493.81
2023-11-15T04:05:07.629Z,99500.47
2023-11-15T04:08:10.453Z,99512.06
2023-11-15T04:11:12.281Z,99504.47
2023-11-15T04:14:15.081Z,99502.72
2023-11-15T04:17:16.919Z,99506.16
2023-11-15T04:20:18.927Z,99501.75
2023-11-15T04:23:20.766Z,99502.34
2023-11-15T04:26:23.623Z,99492.50
2023-11-15T04:29:26.376Z,99491.19
2023-11-15T04:32:28.205Z,99476.66
2023-11-15T04:35:30.134Z,99489.94
2023-11-15T04:38:32.423Z,99493.47
2023-11-15T04:41:35.331Z,99496.84
2023-11-15T04:44:37.293Z,99494.72
2023-11-15T04:47:39.238Z,99498.41
2023-11-15T04:50:41.242Z,99495.75
2023-11-15T04:53:43.247Z,99495.50
2023-11-15T04:56:45.101Z,99490.94
2023-11-15T04:59:46.937Z,99492.66
2023-11-15T05:02:48.833Z,99491.59
2023-11-15T05:05:50.875Z,99491.59
2023-11-15T05:08:52.718Z,99486.22
2023-11-15T05:11:54.581Z,99491.59
2023-11-15T05:14:56.830Z,99480.44
2023-11-15T05:17:59.204Z,99482.84
2023-11-15T05:21:01.019Z,99479.31
2023-11-15T05:24:04.150Z,99481.56
2023-11-15T05:27:06.442Z,99479.88
2023-11-15T05:30:08.619Z,99485.25
2023-11-15T05:33:10.502Z,99490.44
2023-11-15T05:36:12.284Z,99489.19
2023-11-15T05:39:14.259Z,99494.81
2023-11-15T05:42:16.631Z,99485.22
2023-11-15T05:45:18.427Z,99481.28
2023-11-15T05:48:20.228Z,99484.16
2023-11-15T05:51:22.520Z,99486.66
2023-11-15T05:54:24.301Z,99479.06
2023-11-15T05:57:26.097Z,99479.75
2023-11-15T06:00:27.944Z,99484.75
2023-11-15T06:03:29.958Z,99484.69
2023-11-15T06:06:31.829Z,99486.00
2023-11-15T06:09:33.790Z,99483.94
2023-11-15T06:12:36.626Z,99481.72
2023-11-15T06:15:38.583Z,99483.97
2023-11-15T06:18:40.630Z,99482.13
2023-11-15T06:21:44.868Z,99477.91
2023-11-15T06:24:46.708Z,99473.25
2023-11-15T06:27:48.590Z,99467.63
2023-11-15T06:30:51.018Z,99475.94
2023-11-15T06:33:52.867Z,99469.81
2023-11-15T06:36:56.628Z,99471.16
2023-11-15T06:39:58.487Z,99464.66
2023-11-15T06:43:00.219Z,99467.97
2023-11-15T06:46:01.979Z,99465.00
2023-11-15T06:49:03.750Z,99459.25
2023-11-15T06:52:07.210Z,99459.22
2023-11-15T06:55:12.899Z,99477.63
2023-11-15T06:58:20.836Z,99467.03
2023-11-15T07:01:23.315Z,99472.34
2023-11-15T07:04:25.096Z,99461.16
2023-11-15T07:07:26.933Z,99469.44
2023-11-15T07:10:31.337Z,99457.78
2023-11-15T07:13:33.078Z,99466.47
2023-11-15T07:16:36.564Z,99469.81
2023-11-15T07:19:39.622Z,99453.84
2023-11-15T07:22:41.533Z,99479.75
2023-11-15T07:25:43.428Z,99484.34
2023-11-15T07:28:45.145Z,99487.72
2023-11-15T07:31:54.641Z,99472.41
2023-11-15T07:34:56.974Z,99492.09
2023-11-15T07:37:58.796Z,99472.56
2023-11-15T07:41:00.941Z,99487.75
2023-11-15T07:44:03.084Z,99498.88
2023-11-15T07:47:05.124Z,99504.09
2023-11-15T07:50:08.059Z,99510.34
2023-11-15T07:53:09.812Z,99516.09
2023-11-15T07:56:11.705Z,99541.69
2023-11-15T07:59:13.620Z,99541.22
2023-11-15T08:02:15.396Z,99544.44
2023-11-15T08:05:17.307Z,99546.31
2023-11-15T08:08:19.142Z,99551.69
2023-11-15T08:11:23.406Z,99557.09
2023-11-15T08:14:26.786Z,99552.06
2023-11-15T08:17:29.306Z,99566.88
2023-11-15T08:20:31.161Z,99557.25
2023-11-15T08:23:33.220Z,99566.03
2023-11-15T08:26:35.103Z,99557.25
2023-11-15T08:29:36.996Z,99563.47
2023-11-15T08:32:40.769Z,99572.25
2023-11-15T08:35:45.029Z,99593.50
2023-11-15T08:38:47.118Z,99575.94
2023-11-15T08:41:49.296Z,99582.50
2023-11-15T08:44:52.045Z,99599.72
2023-11-15T08:47:58.380Z,99595.00
2023-11-15T08:51:03.984Z,99598.53
2023-11-15T08:54:07.143Z,99606.78
2023-11-15T08:57:09.059Z,99596.66
2023-11-15T09:00:17.484Z,99630.78
2023-11-15T09:03:19.548Z,99623.34
2023-11-15T09:06:24.439Z,99624.34
2023-11-15T09:09:27.424Z,99636.72
2023-11-15T09:12:31.980Z,99639.41
2023-11-15T09:15:33.723Z,99661.16
2023-11-15T09:18:35.619Z,99667.06
2023-11-15T09:21:38.407Z,99675.03
2023-11-15T09:24:41.592Z,99683.63
2023-11-15T09:27:44.179Z,99675.34
2023-11-15T09:30:46.879Z,99690.56
2023-11-15T09:33:48.812Z,99693.94
2023-11-15T09:36:50.715Z,99708.28
2023-11-15T09:39:52.520Z,99701.69
2023-11-15T09:43:01.835Z,99712.34
2023-11-15T09:46:10.048Z,99702.38
2023-11-15T09:49:15.469Z,99727.03
2023-11-15T09:52:17.846Z,99729.56
2023-11-15T09:55:22.988Z,99733.78
2023-11-15T09:58:24.839Z,99747.44
2023-11-15T10:01:27.851Z,99731.72
2023-11-15T10:04:30.625Z,99740.69
2023-11-15T10:07:32.479Z,99739.00
2023-11-15T10:10:34.250Z,99740.34
2023-11-15T10:13:39.658Z,99725.66
2023-11-15T10:16:49.665Z,99713.00
2023-11-15T10:19:51.479Z,99737.00
2023-11-15T10:22:54.667Z,99730.56
2023-11-15T10:25:59.313Z,99725.53
2023-11-15T10:29:10.470Z,99733.28
2023-11-15T10:32:13.842Z,99725.66
2023-11-15T10:35:29.057Z,99711.81
2023-11-15T10:38:35.623Z,99719.59
2023-11-15T10:41:37.768Z,99719.44
2023-11-15T10:44:41.697Z,99727.19
2023-11-15T10:47:56.157Z,99729.53
2023-11-15T10:51:00.848Z,99729.22
2023-11-15T10:54:05.194Z,99729.72
2023-11-15T10:57:11.071Z,99733.78
2023-11-15T11:00:21.637Z,99740.53
2023-11-15T11:03:26.559Z,99728.72
2023-11-15T11:06:40.439Z,99751.34
2023-11-15T11:09:54.163Z,99748.63
2023-11-15T11:12:57.782Z,99747.63
2023-11-15T11:16:34.973Z,99744.41
2023-11-15T11:19:48.496Z,99755.72
2023-11-15T11:23:24.014Z,99757.75
2023-11-15T11:26:37.343Z,99749.81
2023-11-15T11:30:14.175Z,99752.19
2023-11-15T11:33:20.725Z,99762.16
2023-11-15T11:36:45.106Z,99749.66
2023-11-15T11:39:47.353Z,99743.16
2023-11-15T11:42:49.956Z,99759.06
2023-11-15T11:45:56.316Z,99740.16
2023-11-15T11:49:01.243Z,99770.06
2023-11-15T11:52:03.442Z,99733.94
2023-11-15T11:55:06.550Z,99770.56
2023-11-15T11:58:08.361Z,99770.59
2023-11-15T12:01:12.644Z,99769.03
2023-11-15T12:04:14.763Z,99763.97
2023-11-15T12:07:16.759Z,99763.97
2023-11-15T12:10:19.809Z,99773.91
2023-11-15T12:13:21.667Z,99774.91
2023-11-15T12:16:25.742Z,99776.97
2023-11-15T12:19:27.968Z,99772.56
2023-11-15T12:22:30.954Z,99787.94
2023-11-15T12:25:34.288Z,99795.59
2023-11-15T12:28:36.556Z,99788.56
2023-11-15T12:31:39.121Z,99813.97
2023-11-15T12:34:41.087Z,99801.44
2023-11-15T12:37:43.339Z,99814.59
2023-11-15T12:40:48.857Z,99822.53
2023-11-15T12:44:04.015Z,99821.34
2023-11-15T12:47:06.127Z,99830.69
2023-11-15T12:50:08.951Z,99825.50
2023-11-15T12:53:12.931Z,99828.88
2023-11-15T12:56:20.517Z,99832.75
2023-11-15T12:59:33.897Z,99834.28
2023-11-15T13:02:37.867Z,99847.28
2023-11-15T13:05:39.927Z,99835.81
2023-11-15T13:08:54.088Z,99834.63
2023-11-15T13:11:56.128Z,99832.59
2023-11-15T13:14:58.002Z,99831.94
2023-11-15T13:17:59.894Z,99841.03
2023-11-15T13:21:01.786Z,99853.22
2023-11-15T13:24:03.818Z,99842.91
2023-11-15T13:27:05.665Z,99853.03
2023-11-15T13:30:08.732Z,99852.38
2023-11-15T13:33:10.927Z,99855.25
2023-11-15T13:36:14.149Z,99865.56
2023-11-15T13:39:16.464Z,99865.53
2023-11-15T13:42:18.362Z,99881.78
2023-11-15T13:45:21.429Z,99872.97
2023-11-15T13:48:23.818Z,99890.72
2023-11-15T13:51:25.651Z,99889.88
2023-11-15T13:54:27.468Z,99902.41
2023-11-15T13:57:29.349Z,99906.81
2023-11-15T14:00:35.048Z,99900.22
2023-11-15T14:03:37.351Z,99909.00
2023-11-15T14:06:39.213Z,99912.38
2023-11-15T14:09:41.320Z,99913.38
2023-11-15T14:12:43.197Z,99921.00
2023-11-15T14:15:46.959Z,99922.69
2023-11-15T14:18:51.047Z,99939.56
2023-11-15T14:21:53.478Z,99930.28
2023-11-15T14:24:55.591Z,99946.69
2023-11-15T14:27:58.486Z,99959.72
2023-11-15T14:31:01.449Z,99944.44
2023-11-15T14:34:03.297Z,99958.66
2023-11-15T14:37:05.065Z,99952.88
2023-11-15T14:40:07.639Z,99955.53
2023-11-15T14:43:11.085Z,99955.56
2023-11-15T14:46:12.907Z,99973.28
2023-11-15T14:49:14.816Z,99968.59
2023-11-15T14:52:22.501Z,99982.25
2023-11-15T14:55:29.101Z,99982.22
2023-11-15T14:58:30.860Z,99986.78
2023-11-15T15:01:33.278Z,99981.03
2023-11-15T15:04:35.307Z,99981.53
2023-11-15T15:07:37.811Z,99992.34
2023-11-15T15:10:39.626Z,99986.78
2023-11-15T15:13:41.345Z,99992.03
2023-11-15T15:16:43.126Z,99993.53
2023-11-15T15:19:44.913Z,99992.84
2023-11-15T15:22:48.130Z,99997.09
2023-11-15T15:25:50.741Z,99999.25
2023-11-15T15:28:52.657Z,100004.97
2023-11-15T15:31:54.582Z,100011.03
2023-11-15T15:34:58.436Z,100002.53
2023-11-15T15:38:01.011Z,100021.59
2023-11-15T15:41:04.560Z,100021.38
2023-11-15T15:44:07.279Z,100020.06
2023-11-15T15:47:09.222Z,100020.56
2023-11-15T15:50:12.382Z,100026.94
2023-11-15T15:53:14.242Z,100034.69
2023-11-15T15:56:17.270Z,100038.63
2023-11-15T15:59:19.029Z,100046.75
2023-11-15T16:02:20.778Z,100057.66
2023-11-15T16:05:23.850Z,100052.78
2023-11-15T16:08:25.620Z,100050.91
2023-11-15T16:11:27.449Z,100059.47
2023-11-15T16:14:29.471Z,100065.72
2023-11-15T16:17:35.721Z,100065.56
2023-11-15T16:20:38.671Z,100074.72
2023-11-15T16:23:40.482Z,100072.78
2023-11-15T16:26:42.681Z,100076.81
2023-11-15T16:29:44.522Z,100077.91
2023-11-15T16:32:46.460Z,100086.47
2023-11-15T16:35:49.503Z,100096.81
2023-11-15T16:38:51.303Z,100110.00
2023-11-15T16:41:55.747Z,100111.63
2023-11-15T16:44:57.664Z,100117.78
2023-11-15T16:48:00.009Z,100112.47
2023-11-15T16:51:02.063Z,100117.72
2023-11-15T16:54:04.093Z,100123.22
2023-11-15T16:57:06.586Z,100123.72
2023-11-15T17:00:10.295Z,100125.91
2023-11-15T17:03:12.378Z,100128.22
2023-11-15T17:06:17.295Z,100132.75
2023-11-15T17:09:19.638Z,100149.81
2023-11-15T17:12:24.435Z,100154.69
2023-11-15T17:15:27.771Z,100159.47
2023-11-15T17:18:29.908Z,100165.06
2023-11-15T17:21:31.856Z,100155.13
2023-11-15T17:24:34.221Z,100157.22
2023-11-15T17:27:35.969Z,100168.50
2023-11-15T17:30:37.822Z,100163.16
2023-11-15T17:33:41.666Z,100170.78
2023-11-15T17:36:44.757Z,100181.69
2023-11-15T17:39:46.549Z,100184.22
2023-11-15T17:42:48.371Z,100187.09
2023-11-15T17:45:50.195Z,100187.38
2023-11-15T17:48:52.415Z,100176.00
2023-11-15T17:51:54.699Z,100184.31
2023-11-15T17:54:57.110Z,100189.31
2023-11-15T17:57:58.994Z,100185.78
2023-11-15T18:01:02.961Z,100190.94
2023-11-15T18:04:06.758Z,100199.19
2023-11-15T18:07:08.632Z,100190.13
2023-11-15T18:10:14.668Z,100192.81
2023-11-15T18:13:16.878Z,100199.97
2023-11-15T18:16:19.382Z,100189.56
2023-11-15T18:19:22.509Z,100198.34
2023-11-15T18:22:24.351Z,100202.13
2023-11-15T18:25:27.570Z,100209.44
2023-11-15T18:28:31.151Z,100211.63
2023-11-15T18:31:32.955Z,100220.06
2023-11-15T18:34:34.750Z,100223.78
2023-11-15T18:37:37.694Z,100216.94
2023-11-15T18:40:40.006Z,100222.69
2023-11-15T18:43:42.282Z,100238.22
2023-11-15T18:46:52.322Z,100237.34
2023-11-15T18:49:55.497Z,100243.75
2023-11-15T18:52:59.405Z,100244.22
2023-11-15T18:56:03.072Z,100256.91
2023-11-15T18:59:06.115Z,100260.00
2023-11-15T19:02:08.937Z,100258.84
2023-11-15T19:05:13.004Z,100265.53
2023-11-15T19:08:15.660Z,100264.44
2023-11-15T19:11:17.429Z,100265.53
2023-11-15T19:14:19.527Z,100267.00
2023-11-15T19:17:22.767Z,100271.78
2023-11-15T19:20:24.678Z,100275.38
2023-11-15T19:23:26.822Z,100282.72
2023-11-15T19:26:30.052Z,100282.19
2023-11-15T19:29:31.916Z,100280.25
2023-11-15T19:32:35.083Z,100284.56
2023-11-15T19:35:37.537Z,100290.47
2023-11-15T19:38:39.397Z,100289.06
2023-11-15T19:41:41.161Z,100287.34
2023-11-15T19:44:43.028Z,100291.09
2023-11-15T19:47:45.603Z,100293.25
2023-11-15T19:50:48.683Z,100292.38
2023-11-15T19:53:51.147Z,100289.72
2023-11-15T19:56:53.044Z,100294.03
2023-11-15T19:59:56.242Z,100293.72
2023-11-15T20:02:59.593Z,100292.91
2023-11-15T20:06:01.400Z,100297.56
2023-11-15T20:09:03.254Z,100292.53
2023-11-15T20:12:06.625Z,100290.00
2023-11-15T20:15:11.360Z,100288.41
2023-11-15T20:18:13.521Z,100293.13
2023-11-15T20:21:15.405Z,100291.41
2023-11-15T20:24:21.108Z,100294.81
2023-11-15T20:27:23.287Z,100287.44
2023-11-15T20:30:27.021Z,100290.56
2023-11-15T20:33:29.161Z,100288.56
2023-11-15T20:36:31.245Z,100289.97
2023-11-15T20:39:34.491Z,100295.78
2023-11-15T20:42:36.593Z,100297.78
2023-11-15T20:45:39.479Z,100299.63
2023-11-15T20:48:41.354Z,100308.97
2023-11-15T20:51:48.829Z,100309.69
2023-11-15T20:54:51.776Z,100313.97
2023-11-15T20:57:59.926Z,100315.09
2023-11-15T21:01:04.091Z,100324.44
2023-11-15T21:04:08.797Z,100319.63
2023-11-15T21:07:11.673Z,100317.50
2023-11-15T21:10:16.449Z,100314.94
2023-11-15T21:13:19.376Z,100310.69
2023-11-15T21:16:21.274Z,100302.47
2023-11-15T21:19:23.267Z,100312.94
2023-11-15T21:22:25.207Z,100319.16
2023-11-15T21:25:27.085Z,100322.53
2023-11-15T21:28:29.051Z,100333.44
2023-11-15T21:31:30.952Z,100334.97
2023-11-15T21:34:32.941Z,100336.66
2023-11-15T21:37:34.682Z,100342.13
2023-11-15T21:40:36.558Z,100351.31
2023-11-15T21:43:38.434Z,100345.81
2023-11-15T21:46:40.209Z,100346.03
2023-11-15T21:49:42.002Z,100338.38
2023-11-15T21:52:44.650Z,100338.84
2023-11-15T21:55:46.555Z,100327.31
2023-11-15T21:58:48.451Z,100339.53
2023-11-15T22:01:50.299Z,100343.19
2023-11-15T22:04:53.127Z,100349.69
2023-11-15T22:07:54.969Z,100343.31
2023-11-15T22:10:56.774Z,100344.56
2023-11-15T22:13:58.566Z,100345.50
2023-11-15T22:17:00.308Z,100354.13
2023-11-15T22:20:02.217Z,100350.91
2023-11-15T22:23:05.129Z,100353.53
2023-11-15T22:26:07.666Z,100349.41
2023-11-15T22:29:11.794Z,100340.34
2023-11-15T22:32:13.614Z,100358.50
2023-11-15T22:35:15.715Z,100359.56
2023-11-15T22:38:17.848Z,100369.41
2023-11-15T22:41:19.641Z,100376.22
2023-11-15T22:44:21.632Z,100385.75
2023-11-15T22:47:23.456Z,100383.13
2023-11-15T22:50:25.321Z,100387.03
2023-11-15T22:53:27.201Z,100389.06
2023-11-15T22:56:29.054Z,100388.38
2023-11-15T22:59:30.904Z,100393.94
2023-11-15T23:02:33.688Z,100387.50
2023-11-15T23:05:47.651Z,100394.97
2023-11-15T23:08:49.552Z,100399.94
2023-11-15T23:11:52.010Z,100410.25
2023-11-15T23:14:54.447Z,100402.59
2023-11-15T23:17:56.250Z,100408.34
2023-11-15T23:20:58.948Z,100404.63
2023-11-15T23:24:00.920Z,100414.19
2023-11-15T23:27:02.954Z,100414.25
2023-11-15T23:30:05.524Z,100418.31
2023-11-15T23:33:10.716Z,100423.84
2023-11-15T23:36:13.287Z,100429.34
2023-11-15T23:39:15.973Z,100425.59
2023-11-15T23:42:21.348Z,100426.00
2023-11-15T23:45:24.321Z,100422.25
2023-11-15T23:48:26.159Z,100424.38
2023-11-15T23:51:28.061Z,100424.28
2023-11-15T23:54:30.155Z,100426.06
2023-11-15T23:57:33.381Z,100421.72
